Clarksburg, West Virginia
Current Conditions -  °F | °C
As of 8:53 AM on Sunday 25 Jan 2015 (Local Time) from KCKB Reporting Station
Haze Haze  
Wind Chill: 29°   Ceiling: 3700
Heat Index: 34°   Visibility: 6mi
Dew Point: 31°   Wind: 6mph
Humidity: 89%   Direction: 210°SSW
Pressure: 29.79"   Gusts: NA
Location:  39.28°N, 80.34°W
Report Text: KCKB 251353Z 21005KT 6SM BR OVC037 01/M01 A2979 RMK AO2 SLP093 T00111006
Loading
Personal Weather Stations






























Interactive Weather Map New forecast layout! Learn more

10-Day Weather Forecast

Advertisements
Track Severe Weather on mobile